Time;durP1;ratioP1;P1;durP2;ratioP2;P2;SDS_P1;SDS_P2;PMS_P1;PMS_P2;Temp;Humidity;BMP_temperature;BMP_pressure;BME280_temperature;BME280_humidity;BME280_pressure;Samples;Min_cycle;Max_cycle;Signal;HPM_P1;HPM_P2
2023/12/04 00:00:36;;;;;;;6.55;4.63;;;;;;;1.44;100.00;98716.78;5091937;28;20028;-47
2023/12/04 00:03:01;;;;;;;6.38;3.88;;;;;;;1.35;100.00;98710.72;5090771;28;20154;-47
2023/12/04 00:05:27;;;;;;;8.95;4.10;;;;;;;1.24;100.00;98703.91;5091807;28;20016;-47
2023/12/04 00:07:53;;;;;;;5.85;4.70;;;;;;;1.15;100.00;98697.03;5090536;28;20115;-47
2023/12/04 00:10:18;;;;;;;9.70;5.68;;;;;;;1.06;100.00;98692.66;5091809;28;20028;-47
2023/12/04 00:12:44;;;;;;;11.15;7.05;;;;;;;0.93;100.00;98680.06;5091809;28;20098;-47
2023/12/04 00:15:10;;;;;;;6.55;4.20;;;;;;;0.86;100.00;98684.94;5090541;28;20077;-47
2023/12/04 00:17:39;;;;;;;8.80;6.20;;;;;;;0.83;100.00;98674.09;5091770;28;20028;-47
2023/12/04 00:20:09;;;;;;;12.27;6.72;;;;;;;0.82;100.00;98682.78;5091638;28;20031;-47
2023/12/04 00:22:35;;;;;;;10.50;7.55;;;;;;;0.81;100.00;98671.66;5090467;28;20066;-47
2023/12/04 00:25:03;;;;;;;12.27;7.60;;;;;;;0.83;100.00;98674.09;5091528;28;20393;-47
2023/12/04 00:27:29;;;;;;;10.70;7.50;;;;;;;1.39;100.00;98668.09;5090464;28;20028;-47
2023/12/04 00:29:55;;;;;;;9.07;7.05;;;;;;;1.97;100.00;98664.38;5090068;28;20539;-48
2023/12/04 00:32:21;;;;;;;10.30;7.53;;;;;;;2.69;100.00;98652.25;5091626;28;20130;-47
2023/12/04 00:34:47;;;;;;;9.38;5.93;;;;;;;3.11;100.00;98648.97;5091655;28;20112;-47
2023/12/04 00:37:12;;;;;;;8.80;6.68;;;;;;;3.52;100.00;98656.13;5090273;28;20039;-47
2023/12/04 00:39:38;;;;;;;10.23;6.68;;;;;;;3.49;100.00;98646.88;5091608;28;20065;-47
2023/12/04 00:42:04;;;;;;;18.92;13.95;;;;;;;3.83;100.00;98650.44;5091565;28;20016;-47
2023/12/04 00:44:30;;;;;;;11.82;7.57;;;;;;;4.14;100.00;98641.06;5091543;28;20047;-47
2023/12/04 00:46:55;;;;;;;10.60;7.05;;;;;;;4.39;100.00;98636.72;5090201;28;20080;-47
2023/12/04 00:49:21;;;;;;;7.60;5.82;;;;;;;4.62;100.00;98638.66;5091564;28;20028;-47
2023/12/04 00:51:47;;;;;;;7.75;6.82;;;;;;;4.91;100.00;98632.97;5091475;28;20024;-47
2023/12/04 00:54:12;;;;;;;8.10;6.18;;;;;;;5.00;100.00;98641.53;5090240;28;20522;-47
2023/12/04 00:56:41;;;;;;;8.95;6.97;;;;;;;4.86;100.00;98639.63;5090129;28;20471;-47
2023/12/04 00:59:10;;;;;;;9.57;7.00;;;;;;;4.62;100.00;98641.25;5091427;28;20028;-47
2023/12/04 01:01:36;;;;;;;5.32;4.32;;;;;;;4.16;100.00;98643.50;5090110;28;20660;-47
2023/12/04 01:04:02;;;;;;;7.82;6.20;;;;;;;3.80;100.00;98644.56;5073174;28;20052;-47
2023/12/04 01:06:29;;;;;;;12.63;7.88;;;;;;;3.50;100.00;98643.34;5091294;28;20055;-47
2023/12/04 01:08:55;;;;;;;4.72;3.35;;;;;;;3.27;96.06;98645.66;5089879;28;20466;-48
2023/12/04 01:11:21;;;;;;;16.13;8.30;;;;;;;2.96;93.92;98635.75;5089969;28;20410;-47
2023/12/04 01:13:47;;;;;;;8.00;5.38;;;;;;;2.74;95.70;98644.84;5089939;28;20115;-47
2023/12/04 01:16:13;;;;;;;5.18;3.63;;;;;;;2.53;99.13;98663.28;5092137;28;20077;-47
2023/12/04 01:18:39;;;;;;;9.15;5.75;;;;;;;2.34;100.00;98661.69;5094855;28;20367;-47
2023/12/04 01:21:05;;;;;;;8.02;5.93;;;;;;;2.19;100.00;98650.19;5094850;28;20035;-46
2023/12/04 01:23:31;;;;;;;8.10;6.40;;;;;;;2.17;100.00;98650.38;5093442;28;20451;-47
2023/12/04 01:25:56;;;;;;;5.88;3.83;;;;;;;2.23;100.00;98650.72;5094633;28;20012;-47
2023/12/04 01:28:22;;;;;;;6.50;5.43;;;;;;;2.22;100.00;98636.19;5093406;28;20080;-47
2023/12/04 01:30:48;;;;;;;5.65;4.25;;;;;;;2.12;98.11;98629.28;5094330;28;20529;-47
2023/12/04 01:33:13;;;;;;;3.15;2.63;;;;;;;2.05;96.28;98623.06;5094585;28;20072;-47
2023/12/04 01:35:39;;;;;;;5.80;3.60;;;;;;;1.97;97.33;98620.38;5093187;28;20059;-47
2023/12/04 01:38:04;;;;;;;7.95;5.78;;;;;;;1.96;98.25;98618.78;5094493;28;20436;-47
2023/12/04 01:40:30;;;;;;;5.63;3.45;;;;;;;2.01;100.00;98608.78;5094480;28;20028;-47
2023/12/04 01:42:56;;;;;;;6.90;5.30;;;;;;;2.11;100.00;98614.72;5093100;28;20020;-47
2023/12/04 01:45:21;;;;;;;10.15;6.10;;;;;;;2.19;99.15;98619.97;5094247;28;20020;-47
2023/12/04 01:47:47;;;;;;;5.47;4.30;;;;;;;2.21;97.87;98622.38;5094335;28;20030;-47
2023/12/04 01:50:15;;;;;;;8.02;5.78;;;;;;;2.15;99.37;98612.63;5094222;28;20024;-47
2023/12/04 01:52:41;;;;;;;9.32;6.70;;;;;;;2.16;98.95;98603.91;5094191;28;20043;-47
2023/12/04 01:55:09;;;;;;;9.23;7.43;;;;;;;2.22;100.00;98599.94;5094178;28;20063;-47
2023/12/04 01:57:35;;;;;;;6.72;5.88;;;;;;;2.30;100.00;98602.56;5094104;28;20074;-46
2023/12/04 02:00:01;;;;;;;7.88;6.50;;;;;;;2.38;100.00;98590.50;5092740;28;20024;-47
2023/12/04 02:02:28;;;;;;;11.07;5.43;;;;;;;2.45;100.00;98577.75;5093997;28;20055;-47
2023/12/04 02:04:59;;;;;;;7.97;5.95;;;;;;;2.46;100.00;98576.81;5093805;28;20052;-47
2023/12/04 02:07:25;;;;;;;7.40;6.18;;;;;;;2.33;98.85;98577.19;5092634;28;20039;-47
2023/12/04 02:09:51;;;;;;;8.68;6.45;;;;;;;2.28;99.38;98574.25;5093871;28;20028;-47
2023/12/04 02:12:17;;;;;;;7.78;6.30;;;;;;;2.22;100.00;98568.84;5092519;28;20097;-47
2023/12/04 02:14:43;;;;;;;8.10;5.55;;;;;;;2.23;100.00;98565.28;5093835;28;20028;-47
2023/12/04 02:17:09;;;;;;;7.90;6.65;;;;;;;2.19;99.24;98559.59;5092416;28;20399;-47
2023/12/04 02:19:36;;;;;;;9.38;6.40;;;;;;;2.13;97.35;98557.59;5092385;28;20105;-47
2023/12/04 02:22:02;;;;;;;10.10;6.57;;;;;;;2.12;96.65;98543.84;5093634;28;20570;-47
2023/12/04 02:24:28;;;;;;;7.20;5.60;;;;;;;2.05;100.00;98553.16;5092288;28;20126;-47
2023/12/04 02:27:04;;;;;;;22.48;13.82;;;;;;;2.03;98.30;98549.91;5090970;28;20031;-47
2023/12/04 02:29:37;;;;;;;10.93;8.55;;;;;;;2.00;100.00;98538.09;5091956;28;20032;-47
2023/12/04 02:32:05;;;;;;;11.15;8.07;;;;;;;1.99;99.55;98538.22;5093668;28;20047;-47
2023/12/04 02:34:33;;;;;;;8.43;6.53;;;;;;;2.06;100.00;98517.75;5092048;28;20119;-46
2023/12/04 02:37:01;;;;;;;11.00;8.60;;;;;;;2.24;100.00;98525.50;5093259;28;20024;-46
2023/12/04 02:39:27;;;;;;;8.75;5.90;;;;;;;2.27;100.00;98518.22;5093317;28;20028;-46
2023/12/04 02:41:53;;;;;;;9.85;5.80;;;;;;;2.30;100.00;98515.34;5093237;28;20039;-46
2023/12/04 02:44:19;;;;;;;17.80;14.65;;;;;;;2.44;100.00;98519.16;5093211;28;20490;-47
2023/12/04 02:46:45;;;;;;;8.45;5.97;;;;;;;2.48;100.00;98498.97;5093275;28;20023;-46
2023/12/04 02:49:10;;;;;;;8.02;6.10;;;;;;;2.45;100.00;98500.06;5093112;28;20031;-47
2023/12/04 02:51:36;;;;;;;23.30;19.08;;;;;;;2.56;100.00;98492.03;5074837;28;20058;-47
2023/12/04 02:54:02;;;;;;;67.38;56.42;;;;;;;2.66;100.00;98489.34;5093010;28;20020;-47
2023/12/04 02:56:27;;;;;;;21.63;16.77;;;;;;;2.85;100.00;98503.03;5091646;28;20035;-46
2023/12/04 02:58:53;;;;;;;20.50;17.13;;;;;;;2.89;100.00;98504.34;5092895;28;20028;-47
2023/12/04 03:01:19;;;;;;;19.13;11.18;;;;;;;2.84;100.00;98498.78;5092917;28;20065;-47
2023/12/04 03:03:44;;;;;;;17.73;13.80;;;;;;;3.00;100.00;98497.09;5091486;28;20032;-47
2023/12/04 03:06:10;;;;;;;12.00;9.18;;;;;;;3.22;100.00;98487.13;5091463;28;20028;-47
2023/12/04 03:08:36;;;;;;;11.68;8.10;;;;;;;3.14;100.00;98490.50;5092741;28;20055;-47
2023/12/04 03:11:03;;;;;;;57.10;45.65;;;;;;;3.00;100.00;98480.72;5091502;28;20050;-47
2023/12/04 03:13:29;;;;;;;116.22;75.43;;;;;;;3.20;100.00;98476.91;5092666;28;20050;-47
2023/12/04 03:15:55;;;;;;;24.60;14.70;;;;;;;3.22;100.00;98463.78;5092594;28;20063;-47
2023/12/04 03:18:23;;;;;;;7.45;5.30;;;;;;;3.02;100.00;98452.88;5092531;28;20546;-47
2023/12/04 03:20:48;;;;;;;12.00;8.57;;;;;;;2.94;100.00;98453.66;5092483;28;20023;-47
2023/12/04 03:23:14;;;;;;;9.77;8.73;;;;;;;2.90;100.00;98421.25;5092538;28;20027;-47
2023/12/04 03:25:40;;;;;;;11.07;8.27;;;;;;;3.02;100.00;98426.13;5092303;28;20119;-47
2023/12/04 03:28:05;;;;;;;7.25;5.50;;;;;;;3.36;100.00;98431.19;5092393;28;20047;-47
2023/12/04 03:30:31;;;;;;;4.45;3.15;;;;;;;3.38;100.00;98434.44;5092097;28;20048;-47
2023/12/04 03:32:57;;;;;;;4.88;2.90;;;;;;;3.43;98.98;98444.38;5090994;28;20027;-47
2023/12/04 03:35:22;;;;;;;6.07;4.22;;;;;;;3.44;100.00;98456.34;5090983;28;20114;-47
2023/12/04 03:37:49;;;;;;;7.70;4.07;;;;;;;3.52;100.00;98469.31;5090624;28;20494;-47
2023/12/04 03:40:16;;;;;;;5.65;3.15;;;;;;;3.60;100.00;98467.56;5092186;28;20024;-47
2023/12/04 03:42:41;;;;;;;9.73;5.93;;;;;;;3.79;100.00;98466.44;5092141;28;20024;-47
2023/12/04 03:45:07;;;;;;;10.30;5.82;;;;;;;3.77;100.00;98467.56;5090774;28;20105;-47
2023/12/04 03:47:33;;;;;;;23.33;13.00;;;;;;;3.62;97.31;98456.22;5092126;28;20023;-47
2023/12/04 03:49:59;;;;;;;8.68;5.60;;;;;;;3.58;100.00;98453.94;5092079;28;20024;-47
2023/12/04 03:52:24;;;;;;;6.57;4.22;;;;;;;3.49;100.00;98474.84;5092066;28;20044;-47
2023/12/04 03:54:50;;;;;;;7.78;5.05;;;;;;;3.46;100.00;98465.63;5091981;28;20494;-47
2023/12/04 03:57:16;;;;;;;5.25;4.70;;;;;;;3.31;100.00;98462.00;5090672;28;20020;-47
2023/12/04 03:59:43;;;;;;;8.48;4.68;;;;;;;3.26;100.00;98454.72;5091973;28;20020;-47
2023/12/04 04:02:09;;;;;;;6.75;5.15;;;;;;;3.17;100.00;98451.28;5091925;28;20048;-47
2023/12/04 04:04:34;;;;;;;7.65;5.18;;;;;;;3.07;100.00;98437.63;5091914;28;20104;-47
2023/12/04 04:07:00;;;;;;;8.55;5.18;;;;;;;2.99;98.96;98433.25;5091844;28;20027;-47
2023/12/04 04:09:26;;;;;;;6.57;4.70;;;;;;;2.93;99.75;98433.06;5090549;28;20024;-47
2023/12/04 04:11:51;;;;;;;5.47;4.35;;;;;;;3.05;100.00;98426.63;5090558;28;20028;-46
2023/12/04 04:14:17;;;;;;;6.80;4.90;;;;;;;3.19;100.00;98412.22;5091843;28;20482;-47
2023/12/04 04:16:42;;;;;;;5.82;4.13;;;;;;;3.36;100.00;98406.09;5091784;28;20020;-47
2023/12/04 04:19:08;;;;;;;7.13;5.35;;;;;;;3.55;100.00;98401.56;5091816;28;20046;-47
2023/12/04 04:21:34;;;;;;;4.68;4.10;;;;;;;3.55;100.00;98404.16;5091797;28;20032;-47
2023/12/04 04:24:00;;;;;;;5.18;4.32;;;;;;;3.47;100.00;98393.78;5090381;28;20040;-47
2023/12/04 04:26:26;;;;;;;5.30;3.60;;;;;;;3.42;100.00;98390.84;5090349;28;20111;-47
2023/12/04 04:28:51;;;;;;;6.43;4.20;;;;;;;3.43;100.00;98392.47;5091943;28;20132;-47
2023/12/04 04:31:17;;;;;;;5.07;3.72;;;;;;;3.54;100.00;98387.78;5091532;28;20094;-47
2023/12/04 04:33:43;;;;;;;5.95;3.90;;;;;;;3.60;100.00;98388.91;5091672;28;20393;-47
2023/12/04 04:36:12;;;;;;;5.63;3.88;;;;;;;3.73;100.00;98397.00;5090295;28;20089;-47
2023/12/04 04:38:39;;;;;;;5.10;4.07;;;;;;;3.78;100.00;98393.91;5091583;28;20374;-47
2023/12/04 04:41:05;;;;;;;6.03;3.85;;;;;;;3.94;100.00;98388.72;5090307;28;20394;-47
2023/12/04 04:43:30;;;;;;;5.35;4.07;;;;;;;3.87;100.00;98384.34;5090225;28;20111;-47
2023/12/04 04:45:56;;;;;;;6.07;4.20;;;;;;;3.70;100.00;98371.41;5091427;28;20451;-47
2023/12/04 04:48:22;;;;;;;6.85;4.43;;;;;;;3.55;100.00;98378.22;5090244;28;20028;-47
2023/12/04 04:50:48;;;;;;;9.20;4.82;;;;;;;3.43;100.00;98359.56;5091823;28;20093;-47
2023/12/04 04:53:13;;;;;;;5.72;4.20;;;;;;;3.87;100.00;98373.97;5095420;28;20022;-47
2023/12/04 04:55:39;;;;;;;13.77;4.18;;;;;;;4.43;100.00;98358.38;5094005;28;20490;-47
2023/12/04 04:58:05;;;;;;;8.82;5.25;;;;;;;5.29;100.00;98357.41;5094246;28;20077;-47
2023/12/04 05:00:31;;;;;;;9.15;4.65;;;;;;;5.62;100.00;98345.91;5093855;28;20032;-47
2023/12/04 05:02:56;;;;;;;8.32;4.65;;;;;;;5.55;100.00;98351.00;5095245;28;20022;-48
2023/12/04 05:05:22;;;;;;;7.53;4.25;;;;;;;5.43;100.00;98355.00;5095032;28;20020;-47
2023/12/04 05:07:47;;;;;;;6.93;4.15;;;;;;;5.29;100.00;98357.41;5095072;28;20107;-47
2023/12/04 05:10:13;;;;;;;7.65;3.80;;;;;;;5.63;100.00;98345.72;5093745;28;20024;-48
2023/12/04 05:12:39;;;;;;;8.25;4.28;;;;;;;5.82;100.00;98343.59;5094897;28;20024;-48
2023/12/04 05:15:05;;;;;;;9.80;3.63;;;;;;;6.43;100.00;98333.81;5094981;28;20032;-47
2023/12/04 05:17:31;;;;;;;5.70;3.70;;;;;;;7.05;100.00;98335.09;5093589;28;20428;-48
2023/12/04 05:19:56;;;;;;;5.47;4.47;;;;;;;6.80;100.00;98332.84;5094881;28;20028;-48
2023/12/04 05:22:22;;;;;;;5.35;4.68;;;;;;;6.31;100.00;98327.44;5093512;28;20111;-48
2023/12/04 05:24:48;;;;;;;6.22;4.25;;;;;;;5.81;100.00;98334.97;5094751;28;20041;-47
2023/12/04 05:27:13;;;;;;;5.85;3.67;;;;;;;5.38;100.00;98326.91;5094679;28;20099;-48
2023/12/04 05:29:39;;;;;;;6.60;3.72;;;;;;;5.06;100.00;98330.56;5094501;28;20040;-48
2023/12/04 05:32:05;;;;;;;6.15;4.03;;;;;;;4.74;100.00;98302.00;5093313;28;20447;-48
2023/12/04 05:34:31;;;;;;;5.22;3.90;;;;;;;4.58;100.00;98304.72;5094551;28;20035;-47
2023/12/04 05:36:56;;;;;;;4.32;2.00;;;;;;;4.40;93.35;98294.56;5094573;28;20516;-47
2023/12/04 05:39:22;;;;;;;5.43;2.55;;;;;;;4.24;88.47;98297.25;5094534;28;20024;-47
2023/12/04 05:41:48;;;;;;;6.57;3.13;;;;;;;3.92;92.96;98310.16;5094510;28;20024;-47
2023/12/04 05:44:14;;;;;;;6.50;3.83;;;;;;;3.74;95.43;98305.22;5093095;28;20036;-47
2023/12/04 05:46:39;;;;;;;5.53;3.15;;;;;;;3.69;93.92;98307.47;5094296;28;20065;-47
2023/12/04 05:49:05;;;;;;;6.20;3.33;;;;;;;3.72;95.37;98309.75;5094401;28;20036;-47
2023/12/04 05:51:31;;;;;;;6.97;3.53;;;;;;;3.94;100.00;98297.88;5092975;28;20516;-47
2023/12/04 05:53:56;;;;;;;5.15;3.47;;;;;;;4.16;100.00;98301.50;5094275;28;20062;-47
2023/12/04 05:56:22;;;;;;;7.15;3.83;;;;;;;4.32;100.00;98298.00;5094225;28;20028;-47
2023/12/04 05:58:48;;;;;;;10.25;4.18;;;;;;;4.57;100.00;98298.72;5094196;28;20024;-47
2023/12/04 06:01:15;;;;;;;6.78;4.47;;;;;;;4.86;100.00;98296.41;5092611;28;20080;-47
2023/12/04 06:03:40;;;;;;;7.45;4.65;;;;;;;5.03;100.00;98290.13;5094077;28;20043;-47
2023/12/04 06:06:06;;;;;;;6.75;4.20;;;;;;;5.20;100.00;98289.00;5093901;28;20016;-47
2023/12/04 06:08:32;;;;;;;9.60;4.57;;;;;;;5.30;100.00;98287.94;5092674;28;20024;-47
2023/12/04 06:10:58;;;;;;;7.95;5.22;;;;;;;5.31;100.00;98276.53;5093930;28;20039;-47
2023/12/04 06:13:24;;;;;;;9.20;4.90;;;;;;;5.34;100.00;98265.78;5092535;28;20085;-47
2023/12/04 06:15:49;;;;;;;9.02;5.35;;;;;;;5.11;100.00;98247.63;5092508;28;20058;-48
2023/12/04 06:18:15;;;;;;;16.92;4.63;;;;;;;4.84;100.00;98260.19;5092479;28;20042;-48
2023/12/04 06:20:41;;;;;;;11.50;4.82;;;;;;;5.42;100.00;98264.91;5093697;28;20378;-47
2023/12/04 06:23:07;;;;;;;8.50;4.68;;;;;;;6.06;100.00;98259.22;5093680;28;20020;-47
2023/12/04 06:25:32;;;;;;;14.45;4.78;;;;;;;6.22;100.00;98250.34;5092209;28;20032;-47
2023/12/04 06:27:58;;;;;;;9.93;5.28;;;;;;;6.44;100.00;98246.81;5093555;28;20028;-48
2023/12/04 06:30:25;;;;;;;7.55;4.55;;;;;;;6.39;100.00;98241.34;5093183;28;20127;-48
2023/12/04 06:32:50;;;;;;;10.23;5.07;;;;;;;6.22;100.00;98235.56;5093396;28;20062;-48
2023/12/04 06:35:16;;;;;;;11.85;4.88;;;;;;;6.56;100.00;98232.31;5092337;28;20036;-48
2023/12/04 06:37:44;;;;;;;10.80;5.10;;;;;;;6.83;100.00;98222.09;5092101;28;20016;-48
2023/12/04 06:40:11;;;;;;;8.95;4.93;;;;;;;7.37;100.00;98223.31;5093297;28;20718;-48
2023/12/04 06:42:37;;;;;;;6.25;4.50;;;;;;;7.80;100.00;98231.78;5091906;28;20012;-48
2023/12/04 06:45:04;;;;;;;7.03;4.38;;;;;;;7.62;100.00;98223.66;5093147;28;20375;-49
2023/12/04 06:47:32;;;;;;;11.95;4.57;;;;;;;7.37;100.00;98228.53;5093220;28;20066;-49
2023/12/04 06:49:57;;;;;;;6.00;4.25;;;;;;;7.06;100.00;98227.09;5091838;28;20498;-49
2023/12/04 06:52:23;;;;;;;6.70;4.47;;;;;;;6.77;100.00;98234.09;5091728;28;20023;-50
2023/12/04 06:54:49;;;;;;;12.00;4.55;;;;;;;6.60;100.00;98224.91;5091788;28;20028;-49
2023/12/04 06:57:15;;;;;;;6.65;4.95;;;;;;;6.46;100.00;98223.16;5093000;28;20469;-49
2023/12/04 06:59:44;;;;;;;10.10;4.22;;;;;;;6.32;100.00;98230.06;5092936;28;20027;-49
2023/12/04 07:02:09;;;;;;;8.88;3.92;;;;;;;6.27;100.00;98237.59;5092838;28;20093;-49
2023/12/04 07:04:35;;;;;;;7.60;3.90;;;;;;;6.04;100.00;98229.91;5091484;28;20065;-49
2023/12/04 07:07:04;;;;;;;10.20;4.40;;;;;;;6.06;100.00;98231.34;5091382;28;20401;-49
2023/12/04 07:09:36;;;;;;;7.82;4.72;;;;;;;6.48;100.00;98223.78;5092747;28;20020;-49
2023/12/04 07:12:02;;;;;;;11.73;5.35;;;;;;;7.03;100.00;98226.69;5092630;28;20024;-49
2023/12/04 07:14:28;;;;;;;7.43;5.20;;;;;;;7.18;100.00;98225.63;5092012;28;20025;-50
2023/12/04 07:16:54;;;;;;;10.65;5.75;;;;;;;6.95;100.00;98209.38;5092617;28;20027;-49
2023/12/04 07:19:20;;;;;;;9.25;5.20;;;;;;;6.45;100.00;98209.31;5091312;28;20039;-49
2023/12/04 07:21:48;;;;;;;11.43;5.35;;;;;;;6.01;99.76;98215.44;5092545;28;20020;-50
2023/12/04 07:24:13;;;;;;;6.13;4.40;;;;;;;5.84;100.00;98208.81;5091202;28;20397;-49
2023/12/04 07:26:39;;;;;;;9.10;5.18;;;;;;;6.07;100.00;98219.13;5092359;28;20059;-49
2023/12/04 07:29:05;;;;;;;10.35;5.40;;;;;;;6.54;100.00;98217.81;5091054;28;20085;-49
2023/12/04 07:31:31;;;;;;;8.25;4.85;;;;;;;6.98;100.00;98193.31;5090794;28;20097;-49
2023/12/04 07:33:57;;;;;;;7.78;4.65;;;;;;;7.19;100.00;98200.31;5092647;28;20028;-49
2023/12/04 07:36:24;;;;;;;10.43;5.35;;;;;;;7.44;100.00;98186.81;5092269;28;20030;-49
2023/12/04 07:38:50;;;;;;;8.50;5.18;;;;;;;7.45;100.00;98191.84;5092321;28;20012;-49
2023/12/04 07:41:18;;;;;;;7.90;5.35;;;;;;;7.46;100.00;98185.59;5092255;28;20099;-49
2023/12/04 07:43:43;;;;;;;9.07;5.40;;;;;;;7.26;99.34;98184.69;5092196;28;20020;-50
2023/12/04 07:46:11;;;;;;;10.85;5.57;;;;;;;6.85;98.83;98183.59;5092121;28;20073;-49
2023/12/04 07:48:37;;;;;;;7.70;5.57;;;;;;;6.30;88.45;98179.88;5092143;28;20024;-49
2023/12/04 07:51:03;;;;;;;13.48;5.70;;;;;;;5.78;89.86;98181.72;5092127;28;20088;-49
2023/12/04 07:53:29;;;;;;;7.50;5.50;;;;;;;5.51;94.56;98199.56;5092082;28;20032;-49
2023/12/04 07:55:55;;;;;;;7.85;5.47;;;;;;;5.43;96.46;98194.47;5092020;28;20494;-49
2023/12/04 07:58:21;;;;;;;10.43;5.82;;;;;;;5.33;98.92;98193.91;5091986;28;20107;-49
2023/12/04 08:00:47;;;;;;;12.25;6.47;;;;;;;5.30;94.47;98178.69;5091987;28;20093;-49
2023/12/04 08:03:13;;;;;;;8.38;5.55;;;;;;;5.16;93.68;98188.88;5091984;28;20020;-49
2023/12/04 08:05:39;;;;;;;9.23;6.50;;;;;;;4.92;89.44;98189.13;5091781;28;20374;-49
2023/12/04 08:08:05;;;;;;;7.15;6.30;;;;;;;4.64;91.36;98186.25;5091950;28;20028;-49
2023/12/04 08:10:31;;;;;;;8.15;6.38;;;;;;;4.63;93.62;98185.47;5090533;28;20498;-49
2023/12/04 08:12:57;;;;;;;12.10;5.93;;;;;;;4.59;93.67;98179.81;5092063;28;20028;-49
2023/12/04 08:15:22;;;;;;;8.88;5.88;;;;;;;4.57;95.54;98181.75;5091731;28;20486;-49
2023/12/04 08:17:48;;;;;;;9.43;5.43;;;;;;;4.55;96.59;98170.75;5090499;28;20468;-49
2023/12/04 08:20:14;;;;;;;9.90;6.55;;;;;;;4.86;100.00;98174.22;5090574;28;20106;-49
2023/12/04 08:22:41;;;;;;;15.80;7.38;;;;;;;4.91;98.98;98177.91;5091721;28;20027;-49
2023/12/04 08:25:08;;;;;;;11.38;6.32;;;;;;;5.09;100.00;98182.78;5092671;28;20043;-49
2023/12/04 08:27:33;;;;;;;12.43;6.63;;;;;;;5.47;100.00;98176.69;5095871;28;20027;-49
2023/12/04 08:29:59;;;;;;;12.65;6.93;;;;;;;5.51;100.00;98173.53;5095585;28;20036;-50
2023/12/04 08:32:28;;;;;;;9.98;6.05;;;;;;;5.63;100.00;98179.09;5095775;28;20025;-49
2023/12/04 08:34:53;;;;;;;8.00;5.85;;;;;;;5.70;100.00;98184.41;5095727;28;20017;-49
2023/12/04 08:37:20;;;;;;;11.05;6.10;;;;;;;5.62;100.00;98176.69;5094665;28;20093;-49
2023/12/04 08:39:45;;;;;;;15.00;6.13;;;;;;;6.06;100.00;98176.66;5095882;28;20081;-49
2023/12/04 08:42:12;;;;;;;17.88;6.03;;;;;;;6.51;100.00;98184.31;5095566;28;20028;-49
2023/12/04 08:44:38;;;;;;;12.43;5.90;;;;;;;7.13;100.00;98185.41;5095489;28;20056;-49
2023/12/04 08:47:04;;;;;;;11.15;5.47;;;;;;;7.69;100.00;98185.34;5094101;28;20063;-50
2023/12/04 08:49:29;;;;;;;10.10;5.70;;;;;;;8.33;100.00;98188.56;5094129;28;20077;-49
2023/12/04 08:51:55;;;;;;;13.50;5.35;;;;;;;8.60;100.00;98185.00;5095471;28;20024;-50
2023/12/04 08:54:21;;;;;;;12.13;5.88;;;;;;;8.63;100.00;98180.38;5095365;28;20024;-50
2023/12/04 08:56:46;;;;;;;18.65;6.95;;;;;;;8.67;100.00;98171.13;5095350;28;20028;-50
2023/12/04 08:59:12;;;;;;;12.63;5.35;;;;;;;8.93;100.00;98165.09;5095334;28;20113;-49
2023/12/04 09:01:39;;;;;;;9.15;5.95;;;;;;;8.88;100.00;98168.34;5095416;28;20028;-49
2023/12/04 09:04:05;;;;;;;8.95;5.20;;;;;;;8.47;100.00;98176.34;5095211;28;20028;-50
2023/12/04 09:06:30;;;;;;;10.80;5.57;;;;;;;8.44;100.00;98182.00;5095063;28;20500;-50
2023/12/04 09:08:56;;;;;;;9.75;5.95;;;;;;;8.57;100.00;98174.13;5093806;28;20021;-49
2023/12/04 09:11:22;;;;;;;7.13;5.40;;;;;;;8.49;96.98;98185.63;5093713;28;20032;-49
2023/12/04 09:13:48;;;;;;;9.02;5.80;;;;;;;8.20;99.46;98177.06;5093703;28;20052;-49
2023/12/04 09:16:13;;;;;;;12.52;7.05;;;;;;;7.70;94.49;98170.47;5093633;28;20059;-50
2023/12/04 09:18:39;;;;;;;11.02;5.47;;;;;;;7.20;94.04;98170.59;5094943;28;20028;-49
2023/12/04 09:21:05;;;;;;;9.48;5.82;;;;;;;6.91;96.99;98171.63;5094836;28;20116;-49
2023/12/04 09:23:31;;;;;;;10.40;6.40;;;;;;;6.68;97.28;98166.59;5093465;28;20058;-50
2023/12/04 09:25:57;;;;;;;8.35;5.30;;;;;;;6.82;99.51;98170.94;5094722;28;20052;-49
2023/12/04 09:28:22;;;;;;;9.13;5.43;;;;;;;7.32;100.00;98163.03;5094706;28;20024;-49
2023/12/04 09:30:48;;;;;;;8.25;5.75;;;;;;;7.39;100.00;98163.91;5094546;28;20069;-50
2023/12/04 09:33:14;;;;;;;10.00;6.18;;;;;;;7.49;100.00;98168.78;5094722;28;20474;-49
2023/12/04 09:35:39;;;;;;;7.72;5.38;;;;;;;7.78;100.00;98152.00;5092743;28;20074;-50
2023/12/04 09:38:05;;;;;;;7.82;5.53;;;;;;;7.54;94.83;98154.13;5094497;28;20038;-50
2023/12/04 09:40:31;;;;;;;12.27;6.03;;;;;;;7.65;98.33;98160.63;5093454;28;20039;-49
2023/12/04 09:42:57;;;;;;;7.25;5.40;;;;;;;7.92;100.00;98158.91;5093175;28;20032;-49
2023/12/04 09:45:25;;;;;;;9.13;5.60;;;;;;;8.06;100.00;98159.75;5094340;28;20024;-50
2023/12/04 09:47:51;;;;;;;13.43;5.68;;;;;;;8.29;100.00;98150.75;5094370;28;20509;-50
2023/12/04 09:50:22;;;;;;;17.85;5.47;;;;;;;8.76;100.00;98159.47;5093120;28;20031;-49
2023/12/04 09:52:52;;;;;;;23.20;6.35;;;;;;;9.17;98.50;98164.47;5094364;28;20074;-50
2023/12/04 09:55:18;;;;;;;17.42;7.20;;;;;;;9.54;99.92;98167.41;5094198;28;20028;-50
2023/12/04 09:57:45;;;;;;;15.48;6.32;;;;;;;9.77;97.80;98161.69;5094189;28;20562;-50
2023/12/04 10:00:15;;;;;;;18.45;6.18;;;;;;;9.95;96.91;98165.44;5076089;28;20032;-49
2023/12/04 10:02:41;;;;;;;12.85;5.90;;;;;;;10.00;96.22;98170.88;5094135;28;20048;-50
2023/12/04 10:05:08;;;;;;;18.05;6.68;;;;;;;9.93;98.68;98170.88;5094168;28;20028;-50
2023/12/04 10:07:34;;;;;;;11.45;6.00;;;;;;;9.68;99.17;98170.81;5092654;28;20406;-50
2023/12/04 10:10:00;;;;;;;18.50;6.35;;;;;;;9.44;100.00;98163.59;5092702;28;20058;-50
2023/12/04 10:12:26;;;;;;;13.88;6.22;;;;;;;9.30;100.00;98162.84;5092601;28;20020;-49
2023/12/04 10:15:11;;;;;;;8.43;5.50;;;;;;;9.03;100.00;98169.94;5092498;28;20550;-50
2023/12/04 10:17:43;;;;;;;18.40;6.82;;;;;;;8.77;100.00;98176.78;5092591;28;20508;-50
2023/12/04 10:20:17;;;;;;;11.95;6.60;;;;;;;8.40;100.00;98182.34;5093699;28;20077;-50
2023/12/04 10:22:54;;;;;;;14.57;9.32;;;;;;;8.07;100.00;98187.50;5093766;28;20425;-50
2023/12/04 10:25:20;;;;;;;16.15;9.52;;;;;;;7.82;100.00;98184.59;5093591;28;20111;-49
2023/12/04 10:27:46;;;;;;;17.75;10.27;;;;;;;7.55;100.00;98183.66;5092700;28;20028;-50
2023/12/04 10:30:30;;;;;;;15.10;9.82;;;;;;;7.23;99.46;98179.88;5093256;28;20040;-50
2023/12/04 10:33:00;;;;;;;17.27;8.13;;;;;;;7.46;100.00;98179.59;5093534;28;20093;-49
2023/12/04 10:35:30;;;;;;;17.80;11.70;;;;;;;7.43;100.00;98174.78;5093722;28;20055;-50
2023/12/04 10:37:57;;;;;;;25.42;11.43;;;;;;;7.42;100.00;98171.34;5093445;28;20034;-49
2023/12/04 10:40:27;;;;;;;14.60;8.90;;;;;;;7.29;100.00;98153.81;5092093;28;20024;-49
2023/12/04 10:43:15;;;;;;;24.60;17.55;;;;;;;6.83;100.00;98143.06;5093665;28;20032;-49
2023/12/04 10:45:43;;;;;;;62.45;46.75;;;;;;;6.33;100.00;98125.59;5093185;28;20020;-49
2023/12/04 10:48:10;;;;;;;99.32;75.68;;;;;;;6.16;100.00;98122.44;5092738;28;20507;-49
2023/12/04 10:50:38;;;;;;;20.23;10.95;;;;;;;6.07;100.00;98118.34;5091836;28;20032;-50
2023/12/04 10:53:04;;;;;;;24.73;16.85;;;;;;;5.84;100.00;98128.91;5093155;28;20018;-49
2023/12/04 10:55:34;;;;;;;27.80;18.10;;;;;;;5.83;100.00;98122.06;5092970;28;20051;-50
2023/12/04 10:58:03;;;;;;;59.40;46.20;;;;;;;5.77;100.00;98125.41;5093015;28;20027;-50
2023/12/04 11:00:32;;;;;;;27.60;13.80;;;;;;;6.25;100.00;98124.94;5092975;28;20101;-49
2023/12/04 11:03:05;;;;;;;18.20;9.65;;;;;;;6.86;100.00;98127.84;5092920;28;20390;-49
2023/12/04 11:05:33;;;;;;;14.23;8.73;;;;;;;7.08;100.00;98128.56;5091492;28;20028;-49
2023/12/04 11:08:02;;;;;;;15.88;9.70;;;;;;;6.96;100.00;98137.94;5091584;28;20436;-49
2023/12/04 11:10:31;;;;;;;20.80;11.07;;;;;;;7.00;100.00;98132.16;5092719;28;20489;-49
2023/12/04 11:13:10;;;;;;;31.40;12.50;;;;;;;7.25;100.00;98121.25;5091458;28;20028;-49
2023/12/04 11:15:43;;;;;;;15.32;8.68;;;;;;;7.36;100.00;98125.94;5092716;28;20024;-49
2023/12/04 11:18:13;;;;;;;130.20;106.30;;;;;;;7.35;100.00;98116.50;5091435;28;20201;-49
2023/12/04 11:20:48;;;;;;;103.78;70.03;;;;;;;7.44;100.00;98124.16;5092664;28;20063;-49
2023/12/04 11:23:16;;;;;;;39.25;28.50;;;;;;;7.59;100.00;98117.78;5074590;28;20081;-50
2023/12/04 11:25:44;;;;;;;45.35;35.10;;;;;;;7.67;100.00;98114.22;5091073;28;20031;-49
2023/12/04 11:28:11;;;;;;;20.40;16.98;;;;;;;7.52;100.00;98116.94;5092528;28;20027;-49